createdAt,value
2023-04-14T00:00:10.132Z,35.96
2023-04-14T00:02:39.750Z,35.23
2023-04-14T00:05:06.880Z,35.20
2023-04-14T00:07:33.685Z,35.74
2023-04-14T00:10:00.610Z,35.28
2023-04-14T00:12:27.311Z,35.44
2023-04-14T00:14:54.036Z,34.93
2023-04-14T00:17:20.817Z,34.63
2023-04-14T00:19:47.581Z,35.15
2023-04-14T00:22:14.189Z,35.01
2023-04-14T00:24:43.555Z,35.29
2023-04-14T00:27:11.161Z,35.25
2023-04-14T00:29:41.044Z,35.15
2023-04-14T00:32:10.026Z,35.21
2023-04-14T00:34:36.679Z,34.80
2023-04-14T00:37:05.172Z,35.08
2023-04-14T00:39:31.798Z,35.20
2023-04-14T00:42:01.838Z,37.32
2023-04-14T00:44:29.609Z,36.27
2023-04-14T00:46:57.954Z,36.33
2023-04-14T00:49:25.886Z,36.21
2023-04-14T00:51:53.144Z,35.89
2023-04-14T00:54:20.112Z,35.60
2023-04-14T00:56:47.205Z,35.71
2023-04-14T00:59:14.350Z,35.30
2023-04-14T01:01:41.563Z,34.99
2023-04-14T01:04:08.797Z,35.33
2023-04-14T01:06:36.660Z,35.28
2023-04-14T01:09:04.312Z,35.96
2023-04-14T01:11:42.737Z,35.62
2023-04-14T01:14:12.638Z,36.31
2023-04-14T01:16:41.084Z,35.21
2023-04-14T01:19:10.872Z,35.46
2023-04-14T01:21:41.662Z,36.18
2023-04-14T01:24:20.730Z,35.11
2023-04-14T01:26:48.083Z,35.17
2023-04-14T01:29:33.793Z,36.32
2023-04-14T01:32:05.539Z,35.84
2023-04-14T01:34:44.171Z,35.59
2023-04-14T01:37:15.714Z,35.82
2023-04-14T01:39:45.665Z,35.88
2023-04-14T01:42:15.123Z,35.44
2023-04-14T01:44:42.726Z,36.27
2023-04-14T01:47:12.031Z,37.60
2023-04-14T01:49:39.926Z,36.04
2023-04-14T01:52:11.522Z,36.76
2023-04-14T01:54:39.913Z,36.38
2023-04-14T01:57:08.099Z,36.74
2023-04-14T01:59:36.696Z,36.91
2023-04-14T02:02:04.387Z,37.42
2023-04-14T02:04:32.191Z,37.32
2023-04-14T02:07:00.507Z,36.76
2023-04-14T02:09:28.079Z,37.33
2023-04-14T02:11:55.407Z,38.46
2023-04-14T02:14:23.765Z,37.73
2023-04-14T02:16:51.219Z,36.76
2023-04-14T02:19:19.243Z,36.17
2023-04-14T02:21:46.763Z,36.32
2023-04-14T02:24:13.549Z,36.50
2023-04-14T02:26:43.563Z,35.99
2023-04-14T02:29:12.248Z,36.92
2023-04-14T02:31:46.340Z,37.16
2023-04-14T02:34:15.977Z,38.18
2023-04-14T02:36:45.252Z,38.36
2023-04-14T02:39:21.651Z,38.23
2023-04-14T02:41:53.479Z,37.27
2023-04-14T02:44:23.405Z,38.37
2023-04-14T02:47:03.827Z,38.72
2023-04-14T02:49:46.977Z,38.23
2023-04-14T02:52:16.519Z,38.05
2023-04-14T02:54:46.375Z,38.18
2023-04-14T02:57:14.315Z,38.26
2023-04-14T02:59:45.843Z,39.05
2023-04-14T03:02:13.647Z,39.23
2023-04-14T03:04:45.473Z,39.08
2023-04-14T03:07:24.304Z,39.24
2023-04-14T03:09:51.687Z,39.54
2023-04-14T03:12:20.038Z,39.47
2023-04-14T03:14:47.786Z,40.17
2023-04-14T03:17:15.002Z,39.78
2023-04-14T03:19:48.040Z,38.97
2023-04-14T03:22:16.024Z,38.60
2023-04-14T03:24:44.396Z,40.33
2023-04-14T03:27:18.924Z,39.67
2023-04-14T03:29:47.737Z,38.87
2023-04-14T03:32:15.707Z,39.40
2023-04-14T03:34:43.461Z,38.68
2023-04-14T03:37:13.415Z,38.86
2023-04-14T03:39:40.928Z,39.60
2023-04-14T03:42:08.599Z,39.09
2023-04-14T03:44:37.785Z,39.24
2023-04-14T03:47:08.059Z,38.53
2023-04-14T03:49:36.369Z,39.12
2023-04-14T03:52:08.041Z,39.53
2023-04-14T03:54:36.548Z,39.13
2023-04-14T03:57:06.211Z,40.45
2023-04-14T03:59:35.270Z,39.57
2023-04-14T04:02:03.165Z,40.48
2023-04-14T04:04:34.765Z,39.38
2023-04-14T04:07:01.840Z,39.57
2023-04-14T04:09:29.930Z,38.52
2023-04-14T04:12:00.078Z,38.57
2023-04-14T04:14:28.220Z,38.63
2023-04-14T04:16:56.473Z,38.00
2023-04-14T04:19:23.896Z,38.21
2023-04-14T04:21:52.967Z,38.37
2023-04-14T04:24:23.087Z,38.50
2023-04-14T04:26:51.600Z,37.80
2023-04-14T04:29:18.901Z,38.43
2023-04-14T04:31:45.774Z,37.80
2023-04-14T04:34:14.680Z,37.86
2023-04-14T04:36:42.303Z,38.23
2023-04-14T04:39:09.317Z,38.42
2023-04-14T04:41:39.739Z,38.74
2023-04-14T04:44:06.572Z,38.55
2023-04-14T04:46:54.020Z,38.19
2023-04-14T04:49:25.071Z,38.11
2023-04-14T04:51:53.619Z,37.88
2023-04-14T04:54:21.698Z,37.17
2023-04-14T04:56:48.372Z,37.74
2023-04-14T04:59:15.111Z,37.58
2023-04-14T05:01:41.839Z,38.25
2023-04-14T05:04:08.632Z,37.37
2023-04-14T05:06:37.567Z,37.20
2023-04-14T05:09:04.984Z,38.27
2023-04-14T05:11:32.202Z,39.26
2023-04-14T05:13:58.990Z,38.64
2023-04-14T05:16:25.914Z,38.47
2023-04-14T05:18:52.724Z,38.54
2023-04-14T05:21:19.473Z,38.31
2023-04-14T05:23:46.434Z,37.89
2023-04-14T05:28:43.215Z,36.92
2023-04-14T05:31:09.960Z,37.88
2023-04-14T05:36:20.831Z,37.92
2023-04-14T05:38:47.493Z,37.35
2023-04-14T05:41:14.175Z,37.52
2023-04-14T05:43:41.200Z,37.17
2023-04-14T05:46:07.924Z,37.40
2023-04-14T05:48:37.727Z,37.37
2023-04-14T05:51:04.395Z,37.26
2023-04-14T05:53:31.019Z,37.21
2023-04-14T05:55:57.757Z,36.94
2023-04-14T05:58:26.771Z,37.15
2023-04-14T06:00:53.749Z,36.65
2023-04-14T06:03:20.586Z,36.59
2023-04-14T06:05:48.281Z,35.78
2023-04-14T06:08:14.896Z,35.31
2023-04-14T06:10:41.663Z,36.01
2023-04-14T06:13:08.813Z,36.37
2023-04-14T06:15:35.679Z,38.15
2023-04-14T06:18:02.279Z,37.36
2023-04-14T06:20:31.859Z,37.66
2023-04-14T06:23:00.869Z,38.02
2023-04-14T06:25:27.715Z,37.24
2023-04-14T06:27:57.118Z,37.59
2023-04-14T06:30:23.804Z,37.80
2023-04-14T06:32:54.350Z,36.49
2023-04-14T06:35:32.362Z,36.87
2023-04-14T06:38:03.365Z,37.31
2023-04-14T06:40:30.024Z,37.47
2023-04-14T06:42:57.831Z,36.60
2023-04-14T06:45:24.595Z,36.41
2023-04-14T06:47:51.685Z,36.57
2023-04-14T06:50:18.566Z,36.49
2023-04-14T06:52:45.598Z,37.49
2023-04-14T06:55:12.200Z,37.33
2023-04-14T06:57:40.223Z,37.37
2023-04-14T07:00:07.369Z,38.38
2023-04-14T07:02:34.248Z,37.20
2023-04-14T07:05:00.929Z,36.15
2023-04-14T07:07:27.680Z,36.74
2023-04-14T07:09:54.426Z,36.28
2023-04-14T07:12:21.210Z,35.40
2023-04-14T07:14:52.136Z,37.30
2023-04-14T07:17:19.077Z,35.40
2023-04-14T07:19:46.228Z,35.37
2023-04-14T07:22:13.139Z,35.17
2023-04-14T07:24:40.467Z,34.73
2023-04-14T07:27:07.505Z,34.46
2023-04-14T07:29:34.415Z,34.58
2023-04-14T07:32:01.208Z,34.24
2023-04-14T07:34:28.089Z,34.30
2023-04-14T07:36:54.870Z,33.40
2023-04-14T07:39:23.859Z,33.30
2023-04-14T07:41:50.679Z,33.05
2023-04-14T07:44:17.348Z,32.51
2023-04-14T07:46:44.453Z,32.92
2023-04-14T07:49:11.372Z,32.56
2023-04-14T07:51:38.453Z,33.02
2023-04-14T07:54:06.223Z,31.84
2023-04-14T07:56:33.128Z,31.69
2023-04-14T07:59:00.073Z,31.48
2023-04-14T08:01:27.217Z,32.02
2023-04-14T08:03:54.170Z,31.29
2023-04-14T08:06:22.244Z,31.32
2023-04-14T08:08:48.853Z,31.63
2023-04-14T08:11:15.635Z,31.53
2023-04-14T08:13:42.659Z,30.99
2023-04-14T08:16:09.498Z,30.52
2023-04-14T08:18:36.458Z,30.22
2023-04-14T08:21:03.193Z,31.00
2023-04-14T08:23:29.809Z,30.31
2023-04-14T08:25:56.608Z,30.14
2023-04-14T08:28:23.140Z,29.73
2023-04-14T08:30:49.925Z,31.09
2023-04-14T08:33:16.722Z,30.36
2023-04-14T08:35:43.895Z,29.02
2023-04-14T08:38:11.074Z,28.69
2023-04-14T08:40:41.899Z,30.25
2023-04-14T08:43:08.832Z,29.97
2023-04-14T08:45:35.854Z,29.13
2023-04-14T08:48:03.374Z,29.91
2023-04-14T08:50:36.794Z,30.33
2023-04-14T08:53:06.151Z,27.13
2023-04-14T08:55:33.458Z,27.02
2023-04-14T08:58:01.243Z,28.35
2023-04-14T09:00:27.962Z,26.79
2023-04-14T09:02:56.211Z,26.47
2023-04-14T09:05:23.243Z,27.38
2023-04-14T09:07:49.984Z,27.37
2023-04-14T09:10:16.949Z,26.11
2023-04-14T09:12:44.143Z,28.57
2023-04-14T09:15:11.570Z,25.85
2023-04-14T09:17:38.544Z,25.12
2023-04-14T09:20:38.898Z,21.82
2023-04-14T09:22:53.118Z,21.50
2023-04-14T09:25:21.132Z,20.95
2023-04-14T09:27:50.652Z,20.89
2023-04-14T09:30:20.727Z,20.93
2023-04-14T09:32:51.184Z,20.83
2023-04-14T09:35:17.855Z,20.81
2023-04-14T09:37:45.028Z,20.73
2023-04-14T09:40:27.082Z,21.25
2023-04-14T09:42:54.328Z,22.35
2023-04-14T09:45:21.143Z,21.60
2023-04-14T09:47:47.871Z,21.25
2023-04-14T09:50:15.771Z,21.17
2023-04-14T09:52:44.621Z,21.06
2023-04-14T09:55:12.505Z,21.08
2023-04-14T09:57:47.644Z,21.83
2023-04-14T10:00:24.621Z,21.61
2023-04-14T10:02:55.978Z,21.73
2023-04-14T10:05:26.488Z,21.57
2023-04-14T10:07:53.192Z,21.92
2023-04-14T10:10:19.875Z,22.18
2023-04-14T10:12:47.279Z,21.85
2023-04-14T10:15:15.415Z,21.75
2023-04-14T10:17:42.770Z,22.68
2023-04-14T10:20:10.127Z,22.28
2023-04-14T10:22:37.523Z,23.01
2023-04-14T10:25:05.741Z,23.59
2023-04-14T10:27:33.622Z,24.14
2023-04-14T10:30:00.643Z,24.93
2023-04-14T10:32:31.327Z,25.24
2023-04-14T10:35:05.493Z,25.77
2023-04-14T10:37:35.311Z,26.06
2023-04-14T10:40:05.619Z,26.31
2023-04-14T10:42:52.804Z,27.80
2023-04-14T10:45:19.597Z,30.06
2023-04-14T10:47:46.383Z,30.26
2023-04-14T10:50:14.207Z,31.51
2023-04-14T10:52:51.984Z,34.22
2023-04-14T10:55:21.605Z,35.92
2023-04-14T10:57:48.471Z,36.06
2023-04-14T11:00:28.495Z,35.22
2023-04-14T11:02:56.768Z,35.42
2023-04-14T11:05:24.463Z,35.04
2023-04-14T11:07:56.356Z,34.33
2023-04-14T11:10:24.048Z,35.01
2023-04-14T11:13:00.797Z,35.62
2023-04-14T11:15:47.049Z,35.73
2023-04-14T11:18:20.021Z,34.98
2023-04-14T11:20:47.032Z,34.24
2023-04-14T11:23:14.864Z,34.54
2023-04-14T11:25:41.551Z,34.15
2023-04-14T11:28:08.830Z,34.38
2023-04-14T11:30:35.452Z,34.99
2023-04-14T11:33:02.627Z,34.46
2023-04-14T11:35:33.682Z,35.25
2023-04-14T11:38:01.021Z,34.84
2023-04-14T11:40:28.025Z,35.87
2023-04-14T11:42:58.340Z,35.06
2023-04-14T11:45:29.184Z,35.07
2023-04-14T11:47:57.012Z,33.82
2023-04-14T11:50:23.744Z,34.24
2023-04-14T11:52:50.552Z,34.17
2023-04-14T11:55:17.702Z,34.62
2023-04-14T11:57:48.161Z,34.53
2023-04-14T12:00:15.325Z,34.88
2023-04-14T12:02:45.762Z,35.78
2023-04-14T12:05:14.080Z,37.58
2023-04-14T12:07:45.864Z,38.04
2023-04-14T12:10:13.440Z,38.16
2023-04-14T12:12:40.043Z,39.94
2023-04-14T12:15:07.260Z,38.94
2023-04-14T12:17:34.259Z,40.10
2023-04-14T12:20:00.939Z,39.96
2023-04-14T12:22:28.853Z,40.94
2023-04-14T12:24:56.042Z,42.37
2023-04-14T12:27:24.612Z,41.55
2023-04-14T12:29:51.825Z,41.72
2023-04-14T12:32:22.390Z,42.43
2023-04-14T12:34:57.697Z,42.28
2023-04-14T12:37:26.652Z,41.82
2023-04-14T12:39:57.631Z,42.47
2023-04-14T12:42:25.397Z,41.46
2023-04-14T12:44:54.807Z,40.73
2023-04-14T12:47:31.811Z,41.01
2023-04-14T12:50:00.399Z,41.10
2023-04-14T12:52:38.158Z,40.26
2023-04-14T12:55:19.102Z,39.82
2023-04-14T12:57:45.831Z,40.60
2023-04-14T13:00:13.748Z,40.60
2023-04-14T13:02:43.570Z,41.14
2023-04-14T13:05:12.246Z,40.36
2023-04-14T13:07:39.030Z,39.67
2023-04-14T13:10:06.980Z,40.09
2023-04-14T13:12:33.933Z,40.96
2023-04-14T13:15:01.048Z,39.79
2023-04-14T13:17:27.870Z,39.82
2023-04-14T13:19:55.767Z,39.51
2023-04-14T13:22:22.925Z,39.80
2023-04-14T13:24:52.415Z,37.84
2023-04-14T13:27:19.821Z,36.20
2023-04-14T13:29:46.427Z,37.56
2023-04-14T13:32:13.284Z,36.44
2023-04-14T13:34:41.879Z,36.13
2023-04-14T13:37:08.551Z,36.04
2023-04-14T13:39:35.350Z,33.61
2023-04-14T13:42:02.094Z,35.23
2023-04-14T13:44:29.635Z,33.22
2023-04-14T13:46:56.665Z,32.60
2023-04-14T13:49:23.739Z,32.17
2023-04-14T13:51:50.327Z,33.11
2023-04-14T13:54:18.034Z,34.05
2023-04-14T13:56:44.829Z,34.09
2023-04-14T13:59:11.523Z,33.61
2023-04-14T14:01:38.184Z,33.93
2023-04-14T14:04:05.024Z,33.23
2023-04-14T14:06:31.919Z,32.49
2023-04-14T14:09:06.513Z,33.19
2023-04-14T14:11:34.849Z,31.89
2023-04-14T14:14:01.875Z,34.24
2023-04-14T14:16:36.693Z,34.17
2023-04-14T14:19:07.328Z,33.82
2023-04-14T14:21:34.377Z,34.72
2023-04-14T14:24:01.532Z,33.33
2023-04-14T14:26:28.300Z,33.18
2023-04-14T14:28:55.188Z,33.56
2023-04-14T14:31:22.057Z,33.18
2023-04-14T14:33:48.768Z,33.11
2023-04-14T14:36:15.403Z,32.99
2023-04-14T14:38:42.102Z,32.90
2023-04-14T14:41:08.745Z,32.36
2023-04-14T14:43:36.177Z,31.97
2023-04-14T14:46:04.268Z,31.47
2023-04-14T14:48:31.489Z,31.56
2023-04-14T14:50:58.258Z,31.07
2023-04-14T14:53:24.788Z,30.97
2023-04-14T14:55:51.805Z,30.25
2023-04-14T14:58:18.481Z,29.69
2023-04-14T15:00:45.093Z,29.38
2023-04-14T15:03:12.347Z,29.35
2023-04-14T15:05:39.141Z,28.61
2023-04-14T15:08:05.831Z,28.80
2023-04-14T15:10:33.069Z,27.91
2023-04-14T15:12:59.675Z,26.94
2023-04-14T15:15:26.449Z,26.24
2023-04-14T15:17:53.162Z,26.02
2023-04-14T15:20:19.996Z,27.56
2023-04-14T15:22:46.744Z,26.71
2023-04-14T15:25:13.431Z,27.12
2023-04-14T15:27:40.317Z,24.72
2023-04-14T15:30:08.263Z,24.25
2023-04-14T15:32:35.172Z,23.72
2023-04-14T15:35:02.116Z,23.47
2023-04-14T15:37:30.027Z,23.28
2023-04-14T15:39:59.403Z,22.54
2023-04-14T15:42:27.381Z,22.17
2023-04-14T15:44:55.552Z,21.98
2023-04-14T15:47:22.363Z,22.51
2023-04-14T15:49:51.789Z,22.53
2023-04-14T15:52:19.940Z,22.63
2023-04-14T15:54:46.609Z,23.31
2023-04-14T15:57:13.185Z,23.14
2023-04-14T15:59:39.981Z,23.73
2023-04-14T16:02:07.174Z,23.18
2023-04-14T16:04:34.155Z,23.05
2023-04-14T16:07:00.917Z,23.18
2023-04-14T16:09:27.626Z,22.78
2023-04-14T16:11:54.385Z,22.80
2023-04-14T16:14:22.047Z,23.19
2023-04-14T16:16:48.760Z,24.35
2023-04-14T16:19:16.240Z,24.74
2023-04-14T16:21:43.240Z,25.54
2023-04-14T16:24:10.158Z,26.01
2023-04-14T16:26:38.655Z,26.28
2023-04-14T16:29:06.102Z,26.35
2023-04-14T16:31:32.846Z,26.95
2023-04-14T16:33:59.852Z,26.85
2023-04-14T16:36:27.334Z,26.40
2023-04-14T16:38:54.376Z,26.56
2023-04-14T16:41:21.389Z,26.22
2023-04-14T16:43:48.182Z,26.14
2023-04-14T16:46:15.600Z,25.29
2023-04-14T16:48:42.266Z,25.38
2023-04-14T16:51:10.616Z,25.32
2023-04-14T16:53:38.700Z,25.75
2023-04-14T16:56:05.773Z,25.84
2023-04-14T16:58:34.046Z,25.38
2023-04-14T17:01:01.625Z,26.09
2023-04-14T17:03:29.028Z,25.76
2023-04-14T17:05:56.275Z,25.33
2023-04-14T17:08:23.415Z,25.42
2023-04-14T17:10:50.433Z,25.53
2023-04-14T17:13:17.115Z,25.54
2023-04-14T17:15:44.050Z,26.05
2023-04-14T17:18:11.714Z,25.98
2023-04-14T17:20:41.553Z,26.47
2023-04-14T17:23:10.208Z,26.10
2023-04-14T17:25:37.341Z,25.82
2023-04-14T17:28:05.018Z,25.73
2023-04-14T17:30:33.807Z,25.64
2023-04-14T17:33:04.068Z,26.09
2023-04-14T17:35:31.473Z,26.18
2023-04-14T17:37:58.374Z,25.98
2023-04-14T17:40:25.440Z,26.43
2023-04-14T17:42:52.038Z,25.94
2023-04-14T17:45:23.092Z,25.79
2023-04-14T17:47:51.544Z,26.07
2023-04-14T17:50:18.424Z,25.91
2023-04-14T17:52:45.722Z,24.88
2023-04-14T17:55:12.655Z,23.66
2023-04-14T17:57:40.753Z,25.35
2023-04-14T18:00:09.609Z,25.39
2023-04-14T18:02:40.258Z,25.27
2023-04-14T18:05:09.451Z,25.17
2023-04-14T18:07:36.977Z,24.52
2023-04-14T18:10:04.789Z,23.92
2023-04-14T18:12:31.546Z,24.27
2023-04-14T18:15:00.239Z,24.80
2023-04-14T18:17:26.904Z,24.23
2023-04-14T18:19:58.827Z,23.63
2023-04-14T18:22:25.988Z,23.36
2023-04-14T18:24:52.941Z,25.77
2023-04-14T18:29:49.940Z,24.56
2023-04-14T18:32:16.550Z,24.70
2023-04-14T18:34:43.481Z,24.50
2023-04-14T18:37:10.457Z,24.93
2023-04-14T18:39:37.813Z,24.97
2023-04-14T18:42:04.674Z,25.45
2023-04-14T18:44:31.454Z,26.00
2023-04-14T18:46:58.087Z,25.78
2023-04-14T18:49:25.072Z,25.99
2023-04-14T18:51:53.097Z,25.95
2023-04-14T18:54:21.303Z,26.01
2023-04-14T18:56:48.166Z,25.65
2023-04-14T18:59:14.861Z,26.56
2023-04-14T19:01:41.496Z,26.43
2023-04-14T19:04:08.419Z,26.54
2023-04-14T19:06:35.169Z,27.58
2023-04-14T19:09:02.175Z,28.23
2023-04-14T19:11:29.375Z,27.77
2023-04-14T19:13:56.143Z,28.39
2023-04-14T19:16:23.057Z,27.85
2023-04-14T19:18:49.688Z,27.64
2023-04-14T19:21:16.546Z,28.34
2023-04-14T19:23:43.296Z,28.74
2023-04-14T19:26:11.558Z,28.32
2023-04-14T19:28:42.695Z,28.15
2023-04-14T19:31:09.688Z,28.98
2023-04-14T19:33:37.653Z,29.81
2023-04-14T19:36:11.095Z,29.03
2023-04-14T19:38:38.713Z,29.23
2023-04-14T19:41:06.486Z,29.18
2023-04-14T19:43:33.033Z,29.33
2023-04-14T19:46:04.562Z,30.16
2023-04-14T19:48:33.065Z,29.64
2023-04-14T19:51:00.369Z,29.65
2023-04-14T19:53:27.385Z,29.75
2023-04-14T19:55:55.935Z,30.22
2023-04-14T19:58:24.566Z,30.08
2023-04-14T20:00:52.275Z,30.74
2023-04-14T20:03:20.300Z,30.29
2023-04-14T20:05:51.286Z,31.01
2023-04-14T20:08:19.071Z,30.13
2023-04-14T20:10:50.932Z,30.38
2023-04-14T20:13:19.517Z,30.34
2023-04-14T20:15:46.927Z,30.71
2023-04-14T20:18:13.638Z,30.44
2023-04-14T20:20:40.793Z,30.58
2023-04-14T20:23:07.744Z,30.70
2023-04-14T20:25:36.183Z,31.27
2023-04-14T20:28:04.115Z,30.43
2023-04-14T20:30:32.281Z,31.41
2023-04-14T20:33:00.316Z,30.91
2023-04-14T20:35:28.084Z,31.22
2023-04-14T20:37:55.567Z,31.32
2023-04-14T20:40:22.460Z,31.38
2023-04-14T20:42:49.331Z,32.33
2023-04-14T20:45:16.046Z,31.52
2023-04-14T20:47:42.828Z,31.64
2023-04-14T20:50:09.781Z,32.74
2023-04-14T20:52:36.588Z,32.38
2023-04-14T20:55:03.702Z,32.23
2023-04-14T20:57:30.447Z,32.38
2023-04-14T20:59:57.113Z,32.96
2023-04-14T21:02:23.904Z,33.74
2023-04-14T21:04:52.261Z,33.47
2023-04-14T21:07:18.915Z,33.66
2023-04-14T21:09:45.557Z,33.23
2023-04-14T21:12:14.444Z,33.29
2023-04-14T21:15:42.230Z,32.89
2023-04-14T21:17:30.298Z,33.20
2023-04-14T21:19:57.589Z,33.12
2023-04-14T21:22:24.256Z,33.95
2023-04-14T21:24:50.868Z,34.03
2023-04-14T21:27:17.690Z,34.17
2023-04-14T21:29:44.817Z,34.08
2023-04-14T21:32:11.558Z,33.29
2023-04-14T21:34:38.206Z,33.89
2023-04-14T21:37:04.972Z,34.09
2023-04-14T21:39:33.284Z,34.06
2023-04-14T21:42:00.290Z,33.84
2023-04-14T21:44:27.411Z,34.11
2023-04-14T21:46:56.338Z,33.94
2023-04-14T21:49:23.096Z,33.84
2023-04-14T21:51:50.344Z,33.64
2023-04-14T21:54:17.263Z,34.18
2023-04-14T21:56:45.098Z,34.51
2023-04-14T21:59:12.501Z,34.86
2023-04-14T22:01:39.716Z,34.59
2023-04-14T22:04:06.758Z,34.39
2023-04-14T22:06:35.360Z,34.29
2023-04-14T22:09:02.414Z,34.08
2023-04-14T22:11:30.856Z,34.48
2023-04-14T22:13:58.357Z,34.20
2023-04-14T22:16:25.629Z,34.54
2023-04-14T22:18:52.551Z,35.21
2023-04-14T22:21:19.210Z,34.18
2023-04-14T22:23:45.962Z,34.88
2023-04-14T22:26:13.491Z,35.28
2023-04-14T22:28:41.058Z,34.56
2023-04-14T22:31:07.915Z,34.68
2023-04-14T22:33:34.930Z,35.46
2023-04-14T22:36:03.831Z,35.21
2023-04-14T22:38:31.102Z,35.26
2023-04-14T22:40:57.745Z,35.30
2023-04-14T22:43:25.504Z,35.84
2023-04-14T22:45:52.720Z,35.61
2023-04-14T22:48:19.494Z,35.10
2023-04-14T22:50:46.263Z,35.33
2023-04-14T22:53:12.910Z,34.73
2023-04-14T22:55:39.543Z,35.18
2023-04-14T22:58:06.275Z,34.57
2023-04-14T23:00:33.409Z,34.92
2023-04-14T23:03:00.608Z,34.95
2023-04-14T23:05:27.434Z,34.76
2023-04-14T23:07:54.583Z,34.34
2023-04-14T23:10:21.172Z,35.82
2023-04-14T23:12:47.915Z,36.85
2023-04-14T23:15:14.646Z,36.49
2023-04-14T23:17:41.777Z,36.59
2023-04-14T23:20:08.867Z,36.45
2023-04-14T23:22:38.625Z,36.74
2023-04-14T23:25:06.110Z,38.48
2023-04-14T23:27:33.387Z,41.45
2023-04-14T23:29:59.958Z,40.39
2023-04-14T23:32:28.646Z,39.91
2023-04-14T23:34:55.228Z,41.17
2023-04-14T23:37:22.474Z,41.82
2023-04-14T23:39:49.128Z,39.38
2023-04-14T23:42:15.924Z,40.78
2023-04-14T23:44:43.024Z,41.74
2023-04-14T23:47:10.469Z,42.72
2023-04-14T23:49:37.235Z,43.08
2023-04-14T23:52:04.602Z,42.71
2023-04-14T23:54:31.809Z,43.25
2023-04-14T23:56:58.491Z,43.49
2023-04-14T23:59:25.141Z,42.82
